Time;durP1;ratioP1;P1;durP2;ratioP2;P2;SDS_P1;SDS_P2;PMS_P1;PMS_P2;Temp;Humidity;BMP_temperature;BMP_pressure;BME280_temperature;BME280_humidity;BME280_pressure;Samples;Min_cycle;Max_cycle;Signal;HPM_P1;HPM_P2
2022/03/30 00:01:45;;;;;;;9.40;2.42;;;;;;;1.40;85.41;100255.94;6094759;28;20036;-70
2022/03/30 00:04:40;;;;;;;7.70;2.23;;;;;;;1.32;86.40;100252.13;6095892;28;20041;-70
2022/03/30 00:07:35;;;;;;;7.30;2.33;;;;;;;1.60;86.03;100246.81;6095552;28;20123;-70
2022/03/30 00:10:31;;;;;;;12.10;2.67;;;;;;;1.31;85.95;100247.84;6095737;28;20091;-69
2022/03/30 00:13:27;;;;;;;7.65;2.47;;;;;;;1.15;86.08;100241.00;6098509;28;20492;-70
2022/03/30 00:16:24;;;;;;;10.10;2.22;;;;;;;1.25;86.99;100250.88;6100531;28;20037;-69
2022/03/30 00:19:19;;;;;;;8.80;3.05;;;;;;;0.89;86.73;100244.44;6100208;28;20431;-69
2022/03/30 00:22:14;;;;;;;10.50;2.60;;;;;;;0.88;86.61;100253.19;6098409;28;20098;-70
2022/03/30 00:25:11;;;;;;;12.53;2.27;;;;;;;0.64;87.38;100233.88;6099537;28;20036;-68
2022/03/30 00:28:08;;;;;;;7.90;2.67;;;;;;;0.50;87.48;100241.69;6099175;28;20041;-68
2022/03/30 00:31:03;;;;;;;10.50;2.97;;;;;;;1.11;88.61;100230.88;6101671;28;20045;-70
2022/03/30 00:33:58;;;;;;;14.13;2.53;;;;;;;0.86;88.17;100234.19;6099965;28;20080;-68
2022/03/30 00:36:54;;;;;;;13.33;3.00;;;;;;;1.22;88.34;100231.03;6099443;28;20032;-70
2022/03/30 00:39:51;;;;;;;8.73;2.72;;;;;;;1.52;87.50;100228.19;6099622;28;20041;-69
2022/03/30 00:42:47;;;;;;;5.65;2.45;;;;;;;1.46;86.04;100233.81;6098040;28;20041;-69
2022/03/30 00:45:42;;;;;;;12.02;2.58;;;;;;;1.60;85.53;100231.13;6099071;28;20037;-69
2022/03/30 00:48:39;;;;;;;7.30;2.40;;;;;;;1.66;84.70;100234.16;6098980;28;20098;-69
2022/03/30 00:51:35;;;;;;;6.88;2.25;;;;;;;1.38;84.19;100234.31;6099472;28;20037;-70
2022/03/30 00:54:30;;;;;;;8.52;2.58;;;;;;;0.89;84.92;100234.00;6098964;28;21640;-70
2022/03/30 00:57:27;;;;;;;8.73;2.77;;;;;;;0.52;86.51;100227.63;6099334;28;20033;-68
2022/03/30 01:00:23;;;;;;;6.85;2.25;;;;;;;0.52;87.15;100219.81;6098573;28;20275;-68
2022/03/30 01:03:19;;;;;;;10.40;3.13;;;;;;;0.86;87.41;100223.75;6098683;28;20526;-68
2022/03/30 01:06:14;;;;;;;10.15;3.53;;;;;;;0.64;87.58;100227.81;6098820;28;20029;-69
2022/03/30 01:09:09;;;;;;;8.17;2.37;;;;;;;0.51;88.16;100222.50;6097742;28;20053;-68
2022/03/30 01:12:07;;;;;;;8.03;2.60;;;;;;;0.97;87.53;100221.31;6097482;28;20275;-69
2022/03/30 01:15:03;;;;;;;9.50;2.88;;;;;;;1.36;87.38;100217.06;6099501;28;20419;-70
2022/03/30 01:17:59;;;;;;;5.72;2.60;;;;;;;0.90;85.71;100214.78;6097469;28;20079;-68
2022/03/30 01:20:54;;;;;;;9.80;2.83;;;;;;;0.29;86.19;100206.50;6097153;28;20090;-69
2022/03/30 01:23:49;;;;;;;9.70;3.00;;;;;;;0.43;86.98;100215.16;6098018;28;20075;-69
2022/03/30 01:26:44;;;;;;;10.80;2.80;;;;;;;0.02;87.32;100208.19;6098089;28;20289;-68
2022/03/30 01:32:54;;;;;;;10.23;2.95;;;;;;;0.22;88.18;100200.00;6096284;28;20041;-68
2022/03/30 01:35:49;;;;;;;6.75;3.00;;;;;;;0.15;88.83;100196.94;6098936;28;20503;-68
2022/03/30 01:38:45;;;;;;;7.68;2.40;;;;;;;0.05;88.68;100198.41;6097480;28;20515;-69
2022/03/30 01:41:40;;;;;;;8.38;3.03;;;;;;;0.45;89.50;100202.88;6097493;28;20071;-68
2022/03/30 01:44:36;;;;;;;6.03;2.30;;;;;;;0.49;88.93;100195.69;6098230;28;20089;-69
2022/03/30 01:47:31;;;;;;;7.68;3.17;;;;;;;0.84;88.66;100188.25;6097848;28;20537;-69
2022/03/30 01:50:29;;;;;;;13.43;3.30;;;;;;;0.85;87.32;100179.47;6097724;28;20036;-68
2022/03/30 01:53:24;;;;;;;9.98;3.00;;;;;;;0.93;86.13;100183.28;6097568;28;20036;-68
2022/03/30 01:56:22;;;;;;;10.97;2.80;;;;;;;0.65;85.53;100185.97;6098045;28;20101;-68
2022/03/30 01:59:17;;;;;;;11.05;3.13;;;;;;;1.11;85.96;100176.84;6097367;28;20029;-68
2022/03/30 02:02:13;;;;;;;10.82;2.67;;;;;;;0.93;85.55;100175.44;6096971;28;20037;-69
2022/03/30 02:05:09;;;;;;;9.48;3.28;;;;;;;1.04;85.20;100182.59;6097692;28;20475;-70
2022/03/30 02:08:04;;;;;;;9.15;3.03;;;;;;;1.08;84.84;100174.47;6097004;28;20059;-69
2022/03/30 02:11:01;;;;;;;9.23;3.28;;;;;;;0.85;84.80;100175.09;6096583;28;20037;-69
2022/03/30 02:13:57;;;;;;;11.77;2.63;;;;;;;0.38;85.68;100172.88;6097389;28;20108;-69
2022/03/30 02:16:53;;;;;;;6.57;2.70;;;;;;;-0.06;85.87;100170.41;6097770;28;20029;-70
2022/03/30 02:19:48;;;;;;;10.00;3.67;;;;;;;0.67;86.64;100163.25;6097493;28;20385;-69
2022/03/30 02:22:43;;;;;;;9.20;2.80;;;;;;;0.25;85.91;100163.28;6095895;28;20391;-70
2022/03/30 02:25:39;;;;;;;9.80;3.17;;;;;;;0.10;86.80;100159.88;6096286;28;20464;-70
2022/03/30 02:28:34;;;;;;;10.30;3.38;;;;;;;0.37;86.98;100157.34;6097059;28;20128;-70
2022/03/30 02:31:30;;;;;;;9.35;2.95;;;;;;;-0.12;87.04;100159.50;6096415;28;20037;-70
2022/03/30 02:34:26;;;;;;;7.20;2.63;;;;;;;-0.46;87.46;100159.84;6096582;28;20112;-69
2022/03/30 02:37:21;;;;;;;9.77;2.70;;;;;;;-0.51;88.50;100146.22;6091861;28;20116;-68
2022/03/30 02:40:17;;;;;;;9.93;3.42;;;;;;;-0.26;89.05;100142.09;6095669;28;20043;-69
2022/03/30 02:43:16;;;;;;;13.18;3.10;;;;;;;0.09;89.26;100152.13;6096812;28;20527;-69
2022/03/30 02:46:11;;;;;;;15.02;3.75;;;;;;;0.11;88.89;100156.31;6097917;28;20053;-70
2022/03/30 02:49:07;;;;;;;10.70;3.50;;;;;;;0.21;89.29;100146.19;6096718;28;20143;-69
2022/03/30 02:52:03;;;;;;;9.17;3.27;;;;;;;0.50;88.26;100134.75;6095669;28;20033;-69
2022/03/30 02:54:58;;;;;;;8.32;2.55;;;;;;;0.43;86.96;100138.72;6096351;28;20040;-70
2022/03/30 02:57:54;;;;;;;8.63;2.70;;;;;;;0.38;86.83;100132.94;6096867;28;20064;-70
2022/03/30 03:00:49;;;;;;;7.93;2.93;;;;;;;0.27;86.29;100119.75;6094555;28;20098;-70
2022/03/30 03:03:44;;;;;;;8.43;2.97;;;;;;;0.58;85.57;100127.28;6095530;28;20306;-70
2022/03/30 03:06:40;;;;;;;8.73;2.83;;;;;;;0.49;84.50;100127.91;6096939;28;20464;-70
2022/03/30 03:09:35;;;;;;;9.15;3.10;;;;;;;0.63;84.83;100122.63;6094860;28;20037;-70
2022/03/30 03:12:30;;;;;;;9.80;2.53;;;;;;;0.49;84.35;100117.47;6095538;28;20037;-69
2022/03/30 03:15:26;;;;;;;9.10;3.40;;;;;;;0.33;84.42;100104.53;6096973;28;20032;-69
2022/03/30 03:18:21;;;;;;;5.03;2.20;;;;;;;0.35;84.65;100112.28;6096182;28;20040;-69
2022/03/30 03:21:16;;;;;;;9.67;3.00;;;;;;;0.51;84.18;100102.56;6094806;28;20499;-69
2022/03/30 03:24:12;;;;;;;11.80;2.50;;;;;;;0.47;83.90;100101.91;6095830;28;20094;-69
2022/03/30 03:27:07;;;;;;;8.93;3.22;;;;;;;0.31;84.85;100095.97;6095868;28;20037;-70
2022/03/30 03:30:04;;;;;;;13.00;3.00;;;;;;;0.15;85.31;100089.22;6095485;28;20475;-70
2022/03/30 03:33:01;;;;;;;9.13;2.63;;;;;;;0.16;85.81;100083.09;6096255;28;20027;-71
2022/03/30 03:35:56;;;;;;;11.75;3.67;;;;;;;0.06;85.96;100090.63;6094054;28;20041;-70
2022/03/30 03:38:52;;;;;;;11.23;4.10;;;;;;;-0.19;86.76;100083.47;6096303;28;20059;-70
2022/03/30 03:41:47;;;;;;;11.93;4.18;;;;;;;-0.24;87.54;100088.13;6094558;28;20090;-69
2022/03/30 03:44:43;;;;;;;8.53;3.63;;;;;;;-0.09;88.11;100081.16;6095829;28;20052;-70
2022/03/30 03:47:38;;;;;;;13.05;3.67;;;;;;;0.11;87.92;100080.75;6099804;28;20472;-70
2022/03/30 03:50:34;;;;;;;14.18;3.50;;;;;;;0.06;87.47;100074.13;6100644;28;20037;-69
2022/03/30 03:53:29;;;;;;;11.05;3.33;;;;;;;0.23;86.99;100077.38;6107835;28;20029;-69
2022/03/30 03:56:24;;;;;;;9.60;3.57;;;;;;;0.31;86.49;100069.06;6100497;28;20037;-70
2022/03/30 03:59:20;;;;;;;12.93;3.70;;;;;;;0.40;86.76;100069.34;6101227;28;20062;-70
2022/03/30 04:02:15;;;;;;;17.23;4.10;;;;;;;0.54;86.33;100065.84;6092710;28;20361;-70
2022/03/30 04:05:13;;;;;;;9.23;3.60;;;;;;;0.56;85.95;100063.97;6100421;28;20329;-69
2022/03/30 04:08:10;;;;;;;11.43;3.38;;;;;;;0.40;86.45;100069.34;6100733;28;20044;-70
2022/03/30 04:11:06;;;;;;;11.10;3.70;;;;;;;0.21;86.59;100065.38;6097399;28;20533;-70
2022/03/30 04:14:01;;;;;;;9.87;3.43;;;;;;;0.06;86.82;100067.16;6100979;28;20037;-70
2022/03/30 04:16:56;;;;;;;15.27;3.78;;;;;;;0.06;87.54;100059.34;6101555;28;20108;-70
2022/03/30 04:19:52;;;;;;;11.07;3.93;;;;;;;0.22;88.00;100044.41;6100896;28;20076;-70
2022/03/30 04:22:47;;;;;;;14.90;4.50;;;;;;;0.89;88.03;100055.72;6099674;28;20041;-70
2022/03/30 04:25:43;;;;;;;19.70;5.40;;;;;;;1.08;86.72;100053.56;6100072;28;20055;-69
2022/03/30 04:28:40;;;;;;;15.70;5.10;;;;;;;0.99;86.88;100051.53;6099401;28;20090;-69
2022/03/30 04:31:36;;;;;;;14.43;4.72;;;;;;;0.52;86.18;100044.22;6099699;28;20435;-70
2022/03/30 04:34:31;;;;;;;12.77;3.87;;;;;;;0.30;86.66;100047.38;6100185;28;20024;-70
2022/03/30 04:37:26;;;;;;;8.67;2.90;;;;;;;0.15;87.40;100044.91;6099662;28;20035;-70
2022/03/30 04:40:23;;;;;;;9.13;3.17;;;;;;;0.72;87.98;100055.97;6098751;28;20036;-68
2022/03/30 04:43:18;;;;;;;9.70;3.25;;;;;;;0.83;87.12;100036.06;6099131;28;20724;-68
2022/03/30 04:46:13;;;;;;;10.77;4.33;;;;;;;0.69;86.82;100040.50;6063108;28;20050;-68
2022/03/30 04:49:09;;;;;;;9.73;3.40;;;;;;;0.29;86.87;100048.31;6057972;28;20033;-68
2022/03/30 04:52:05;;;;;;;9.82;3.22;;;;;;;0.06;87.24;100053.28;6052122;28;20272;-68
2022/03/30 04:55:00;;;;;;;8.43;3.25;;;;;;;-0.05;88.36;100052.19;6059728;28;20041;-67
2022/03/30 04:57:55;;;;;;;9.07;3.50;;;;;;;-0.04;88.73;100043.47;6051388;28;20030;-68
2022/03/30 05:00:51;;;;;;;8.07;2.77;;;;;;;0.78;88.78;100043.38;6050746;28;20033;-70
2022/03/30 05:03:46;;;;;;;12.30;3.53;;;;;;;0.96;87.39;100038.69;6051302;28;20735;-67
2022/03/30 05:06:41;;;;;;;11.90;3.43;;;;;;;0.89;86.52;100038.28;6050813;28;20397;-68
2022/03/30 05:09:37;;;;;;;9.33;3.43;;;;;;;0.80;86.84;100041.50;6051193;28;20276;-68
2022/03/30 05:12:32;;;;;;;9.45;3.60;;;;;;;0.44;86.73;100049.94;6049851;28;20092;-68
2022/03/30 05:15:28;;;;;;;11.15;3.42;;;;;;;0.42;87.42;100046.59;6051221;28;20088;-67
2022/03/30 05:18:23;;;;;;;9.60;3.55;;;;;;;0.37;87.55;100040.00;6049757;28;20033;-68
2022/03/30 05:21:19;;;;;;;13.50;3.83;;;;;;;0.10;87.82;100047.81;6050088;28;20457;-68
2022/03/30 05:24:14;;;;;;;9.73;3.70;;;;;;;0.64;88.02;100035.63;6050267;28;20469;-68
2022/03/30 05:27:11;;;;;;;15.40;5.33;;;;;;;0.42;87.63;100030.94;6048073;28;20080;-70
2022/03/30 05:30:07;;;;;;;18.30;6.50;;;;;;;0.82;87.60;100034.41;6050234;28;20030;-69
2022/03/30 05:33:02;;;;;;;17.25;6.57;;;;;;;0.99;87.26;100035.88;6051357;28;20040;-69
2022/03/30 05:35:57;;;;;;;18.57;5.13;;;;;;;0.77;86.84;100028.66;6050601;28;20025;-68
2022/03/30 05:38:53;;;;;;;11.77;4.05;;;;;;;0.86;87.72;100035.88;6051291;28;20596;-71
2022/03/30 05:41:48;;;;;;;15.40;4.80;;;;;;;1.24;86.69;100029.84;6050509;28;20033;-69
2022/03/30 05:44:43;;;;;;;14.77;4.97;;;;;;;1.22;86.57;100024.75;6051217;28;20133;-70
2022/03/30 05:47:39;;;;;;;10.80;3.93;;;;;;;2.00;86.90;100026.22;6050886;28;20037;-70
2022/03/30 05:50:34;;;;;;;14.37;5.30;;;;;;;1.46;84.47;100030.06;6049866;28;20080;-69
2022/03/30 05:53:29;;;;;;;13.53;5.17;;;;;;;2.29;85.18;100024.13;6050505;28;20141;-69
2022/03/30 05:59:40;;;;;;;15.50;4.65;;;;;;;3.19;80.15;100023.50;6051671;28;20046;-69
2022/03/30 06:02:37;;;;;;;10.85;4.65;;;;;;;2.97;80.32;100013.81;6050004;28;20041;-67
2022/03/30 06:05:32;;;;;;;14.05;4.70;;;;;;;3.09;79.59;100012.91;6050396;28;20164;-69
2022/03/30 06:08:28;;;;;;;15.65;5.60;;;;;;;2.86;78.98;100013.78;6050200;28;20034;-68
2022/03/30 06:11:23;;;;;;;14.60;4.00;;;;;;;2.28;81.23;100019.84;6049683;28;20034;-69
2022/03/30 06:14:18;;;;;;;8.07;3.23;;;;;;;2.08;82.03;100020.44;6050404;28;20060;-68
2022/03/30 06:17:14;;;;;;;16.00;4.78;;;;;;;2.22;81.24;100013.28;6050897;28;20034;-69
2022/03/30 06:20:10;;;;;;;11.52;4.00;;;;;;;2.50;80.42;100019.94;6049568;28;20041;-68
2022/03/30 06:23:05;;;;;;;14.20;4.40;;;;;;;2.36;82.17;100013.09;6049777;28;20034;-68
2022/03/30 06:26:02;;;;;;;18.43;4.53;;;;;;;2.21;82.46;100018.59;6050073;28;20022;-69
2022/03/30 06:28:57;;;;;;;13.68;4.22;;;;;;;2.61;81.28;100011.31;6049135;28;20264;-69
2022/03/30 06:31:52;;;;;;;9.80;3.90;;;;;;;2.89;79.67;100006.53;6049745;28;20068;-69
2022/03/30 06:34:48;;;;;;;10.00;3.37;;;;;;;3.03;80.19;100010.72;6050284;28;20046;-69
2022/03/30 06:37:44;;;;;;;10.17;3.67;;;;;;;3.15;79.13;100017.69;6050693;28;20033;-70
2022/03/30 06:40:39;;;;;;;12.43;4.13;;;;;;;3.28;79.06;100018.41;6049198;28;20034;-69
2022/03/30 06:43:36;;;;;;;9.77;3.60;;;;;;;3.49;78.97;100022.00;6049319;28;20389;-70
2022/03/30 06:46:33;;;;;;;14.65;3.35;;;;;;;3.48;78.30;100017.69;6049638;28;20077;-69
2022/03/30 06:49:30;;;;;;;11.57;3.80;;;;;;;3.44;77.38;100026.75;6049620;28;20592;-69
2022/03/30 06:52:26;;;;;;;9.75;2.80;;;;;;;3.59;78.32;100020.31;6049588;28;20080;-69
2022/03/30 06:55:22;;;;;;;13.02;4.20;;;;;;;3.12;78.26;100010.03;6049500;28;20033;-70
2022/03/30 06:58:18;;;;;;;13.23;3.17;;;;;;;3.45;79.83;100011.88;6049020;28;20493;-70
2022/03/30 07:01:16;;;;;;;10.68;3.55;;;;;;;3.78;77.63;100008.41;6048948;28;20058;-71
2022/03/30 07:04:11;;;;;;;12.43;3.00;;;;;;;3.80;75.62;100014.38;6049475;28;20527;-71
2022/03/30 07:10:23;;;;;;;7.13;2.88;;;;;;;3.89;75.25;100000.50;6048545;28;20046;-70
2022/03/30 07:13:19;;;;;;;13.05;3.83;;;;;;;4.01;74.25;99996.94;6049103;28;20038;-70
2022/03/30 07:16:14;;;;;;;18.48;3.70;;;;;;;3.89;76.24;99995.28;6049283;28;20057;-69
2022/03/30 07:19:09;;;;;;;8.52;3.10;;;;;;;4.04;75.54;99997.53;6049314;28;20036;-71
2022/03/30 07:22:05;;;;;;;12.40;3.70;;;;;;;4.18;74.76;100005.09;6048664;28;20033;-71
2022/03/30 07:25:01;;;;;;;14.05;3.10;;;;;;;3.83;74.63;100007.06;6048745;28;20049;-69
2022/03/30 07:28:02;;;;;;;9.13;2.20;;;;;;;4.19;74.49;100001.53;6049360;28;20038;-71
2022/03/30 07:30:57;;;;;;;17.63;3.22;;;;;;;4.07;74.13;100004.31;6048301;28;20478;-70
2022/03/30 07:33:53;;;;;;;5.83;2.07;;;;;;;4.42;73.26;99996.22;6049288;28;20038;-70
2022/03/30 07:36:48;;;;;;;9.37;2.70;;;;;;;4.74;70.96;100004.94;6049385;28;20909;-70
2022/03/30 07:39:44;;;;;;;10.82;2.35;;;;;;;5.06;70.79;100004.88;6049086;28;20037;-70
2022/03/30 07:42:39;;;;;;;10.10;2.43;;;;;;;5.55;67.58;99996.28;6047967;28;20041;-71
2022/03/30 07:45:35;;;;;;;8.93;2.38;;;;;;;5.70;68.18;99998.44;6048126;28;20034;-71
2022/03/30 07:48:30;;;;;;;5.80;2.25;;;;;;;6.09;67.34;99998.59;6048881;28;20105;-70
2022/03/30 07:51:26;;;;;;;8.13;2.67;;;;;;;6.58;66.63;100001.97;6048293;28;20046;-71
2022/03/30 07:54:21;;;;;;;5.27;2.20;;;;;;;6.40;65.00;99997.53;6049200;28;20116;-69
2022/03/30 07:57:18;;;;;;;8.27;2.10;;;;;;;6.43;65.09;99998.09;6048916;28;20029;-70
2022/03/30 08:00:16;;;;;;;5.28;2.35;;;;;;;6.17;66.33;99996.13;6047871;28;20771;-69
2022/03/30 08:03:11;;;;;;;11.52;2.63;;;;;;;6.34;68.09;99992.81;6048861;28;20092;-71
2022/03/30 08:06:06;;;;;;;8.17;2.77;;;;;;;6.56;66.70;99995.19;6048916;28;20022;-69
2022/03/30 08:09:03;;;;;;;11.10;2.40;;;;;;;6.85;64.41;99993.38;6048784;28;20038;-71
2022/03/30 08:11:58;;;;;;;7.97;2.72;;;;;;;6.59;66.11;99997.53;6046684;28;20044;-71
2022/03/30 08:14:54;;;;;;;8.90;2.70;;;;;;;7.18;63.67;99985.00;6051781;28;20046;-70
2022/03/30 08:17:51;;;;;;;12.45;2.53;;;;;;;6.70;63.36;99983.41;6050506;28;20030;-70
2022/03/30 08:24:02;;;;;;;7.32;2.22;;;;;;;6.56;64.77;99982.84;6046166;28;20038;-70
2022/03/30 08:26:57;;;;;;;8.15;2.28;;;;;;;6.80;64.49;99985.06;6047737;28;20034;-71
2022/03/30 08:29:54;;;;;;;11.38;2.60;;;;;;;6.83;63.53;99979.50;6048311;28;20551;-70
2022/03/30 08:32:49;;;;;;;13.52;3.25;;;;;;;6.99;63.21;99985.03;6049959;28;20154;-71
2022/03/30 08:35:44;;;;;;;8.73;2.37;;;;;;;6.43;64.73;99994.63;6052108;28;20116;-69
2022/03/30 08:38:40;;;;;;;10.80;2.37;;;;;;;6.15;65.57;99987.50;6050994;28;20343;-70
2022/03/30 08:41:35;;;;;;;8.87;2.40;;;;;;;6.07;65.73;99997.88;6051763;28;20374;-71
2022/03/30 08:44:32;;;;;;;11.93;3.57;;;;;;;6.67;63.38;99989.78;6067398;28;20376;-68
2022/03/30 08:47:28;;;;;;;12.50;2.75;;;;;;;6.15;64.27;99998.88;6051816;28;20037;-70
2022/03/30 08:50:23;;;;;;;8.23;2.30;;;;;;;6.09;63.44;99993.34;6051111;28;20045;-69
2022/03/30 08:53:19;;;;;;;6.20;2.40;;;;;;;6.17;63.29;99986.41;6051342;28;20049;-68
2022/03/30 08:56:14;;;;;;;3.72;1.80;;;;;;;6.48;62.87;99979.25;6052665;28;20037;-71
2022/03/30 08:59:12;;;;;;;6.55;2.10;;;;;;;5.86;65.23;99997.97;6052866;28;20040;-70
2022/03/30 09:02:09;;;;;;;9.38;1.70;;;;;;;6.32;64.43;100005.28;6049491;28;20111;-69
2022/03/30 09:05:13;;;;;;;10.73;2.00;;;;;;;6.31;62.44;100003.59;6050627;28;20033;-71
2022/03/30 09:08:13;;;;;;;5.57;2.15;;;;;;;6.21;63.90;100002.75;6050648;28;20443;-71
2022/03/30 09:11:08;;;;;;;11.18;2.42;;;;;;;6.20;64.04;100003.72;6050073;28;20120;-69
2022/03/30 09:14:04;;;;;;;6.90;1.63;;;;;;;6.52;62.89;99991.19;6052121;28;20465;-71
2022/03/30 09:17:09;;;;;;;6.25;1.95;;;;;;;6.91;62.11;99998.09;6051279;28;20026;-70
2022/03/30 09:20:13;;;;;;;7.90;1.80;;;;;;;6.87;60.62;99980.91;6050480;28;20030;-71
2022/03/30 09:23:11;;;;;;;5.72;1.67;;;;;;;7.16;60.86;99986.94;6051214;28;20042;-69
2022/03/30 09:26:06;;;;;;;6.80;1.73;;;;;;;7.11;61.55;99989.19;6050853;28;20025;-69
2022/03/30 09:29:03;;;;;;;14.90;2.65;;;;;;;6.66;61.85;99982.84;6051957;28;20034;-69
2022/03/30 09:32:09;;;;;;;11.00;2.40;;;;;;;7.22;60.55;99980.28;6042819;28;20547;-71
2022/03/30 09:35:04;;;;;;;8.65;2.13;;;;;;;7.79;59.36;99984.50;6051591;28;20034;-71
2022/03/30 09:38:02;;;;;;;5.40;1.80;;;;;;;7.69;58.64;99975.81;6051615;28;20044;-69
2022/03/30 09:41:03;;;;;;;6.43;1.85;;;;;;;7.89;57.65;99972.09;6051084;28;20034;-70
2022/03/30 09:44:03;;;;;;;4.90;2.05;;;;;;;7.69;59.24;99967.91;6066461;28;20026;-70
2022/03/30 09:47:05;;;;;;;7.97;1.92;;;;;;;7.70;58.32;99959.81;6050950;28;20056;-69
2022/03/30 09:50:00;;;;;;;8.82;2.00;;;;;;;7.74;57.40;99960.38;6051068;28;20037;-69
2022/03/30 09:53:09;;;;;;;5.80;1.80;;;;;;;8.18;56.80;99964.00;6051231;28;20398;-71
2022/03/30 09:56:08;;;;;;;10.50;2.20;;;;;;;8.96;55.77;99960.59;6048393;28;20076;-70
2022/03/30 09:59:05;;;;;;;7.32;1.88;;;;;;;8.58;53.99;99950.38;6051288;28;20033;-68
2022/03/30 10:02:05;;;;;;;7.93;2.00;;;;;;;8.80;54.08;99955.19;6050053;28;20095;-69
2022/03/30 10:05:01;;;;;;;9.50;1.95;;;;;;;9.17;53.82;99954.97;6051062;28;20040;-69
2022/03/30 10:07:58;;;;;;;8.77;2.17;;;;;;;9.52;53.15;99937.13;6050758;28;20118;-69
2022/03/30 10:10:53;;;;;;;8.05;2.15;;;;;;;9.50;51.66;99939.13;6049886;28;20038;-70
2022/03/30 10:13:54;;;;;;;9.55;3.35;;;;;;;9.52;50.03;99942.44;6045593;28;20048;-71
2022/03/30 10:16:50;;;;;;;8.50;2.47;;;;;;;8.92;51.44;99924.88;6050741;28;20417;-70
2022/03/30 10:19:46;;;;;;;9.63;2.30;;;;;;;8.94;50.41;99928.22;6050867;28;20136;-70
2022/03/30 10:23:12;;;;;;;5.78;1.70;;;;;;;8.81;51.53;99930.41;6050216;28;20042;-71
2022/03/30 10:26:32;;;;;;;5.15;1.40;;;;;;;9.20;50.06;99921.09;6049016;28;20040;-70
2022/03/30 10:29:29;;;;;;;7.28;1.90;;;;;;;10.04;48.77;99906.03;6047308;28;20038;-69
2022/03/30 10:32:27;;;;;;;4.13;1.63;;;;;;;10.28;48.14;99907.94;6047951;28;20397;-70
2022/03/30 10:35:39;;;;;;;7.38;1.80;;;;;;;8.93;51.48;99915.97;6049340;28;20037;-70
2022/03/30 10:38:35;;;;;;;10.65;2.00;;;;;;;9.48;50.43;99906.66;6042997;28;20040;-70
2022/03/30 10:41:53;;;;;;;5.53;1.43;;;;;;;9.97;49.05;99909.50;6049225;28;20033;-70
2022/03/30 10:44:51;;;;;;;4.22;1.48;;;;;;;10.09;48.89;99908.19;6049971;28;20070;-70
2022/03/30 10:48:11;;;;;;;7.07;1.83;;;;;;;9.97;48.74;99896.28;6050013;28;20042;-70
2022/03/30 10:51:15;;;;;;;6.85;1.60;;;;;;;10.16;48.24;99903.97;6049319;28;20032;-69
2022/03/30 10:54:29;;;;;;;7.03;2.05;;;;;;;10.11;48.02;99890.31;6045460;28;20596;-70
2022/03/30 10:57:46;;;;;;;6.50;1.60;;;;;;;10.56;46.40;99880.13;6037901;28;20516;-70
2022/03/30 11:00:41;;;;;;;8.65;1.90;;;;;;;10.08;46.58;99891.47;6049030;28;20041;-71
2022/03/30 11:03:55;;;;;;;9.57;1.88;;;;;;;10.06;48.00;99882.03;6049805;28;20072;-72
2022/03/30 11:06:53;;;;;;;6.00;1.55;;;;;;;9.54;47.75;99884.88;6049193;28;20121;-70
2022/03/30 11:10:24;;;;;;;6.55;1.50;;;;;;;10.09;46.17;99881.72;6049769;28;20049;-71
2022/03/30 11:13:24;;;;;;;5.15;1.85;;;;;;;9.97;46.21;99872.44;6049329;28;20411;-69
2022/03/30 11:16:20;;;;;;;6.43;1.67;;;;;;;10.95;45.16;99868.81;6049275;28;20030;-70
2022/03/30 11:19:15;;;;;;;8.40;1.63;;;;;;;10.80;44.47;99862.53;6050046;28;20052;-69
2022/03/30 11:22:12;;;;;;;6.95;1.45;;;;;;;10.96;43.48;99862.47;6048565;28;20268;-70
2022/03/30 11:25:20;;;;;;;5.95;2.03;;;;;;;10.15;44.45;99866.03;6049835;28;20045;-71
2022/03/30 11:28:15;;;;;;;5.25;1.70;;;;;;;10.78;44.06;99857.41;6049150;28;20046;-69
2022/03/30 11:31:22;;;;;;;5.30;1.70;;;;;;;11.17;44.22;99857.47;6049872;28;20389;-69
2022/03/30 11:34:31;;;;;;;10.07;1.77;;;;;;;10.80;43.63;99846.59;6049382;28;20021;-70
2022/03/30 11:37:40;;;;;;;7.05;1.80;;;;;;;10.34;43.86;99858.75;6049696;28;20029;-71
2022/03/30 11:40:41;;;;;;;4.95;1.40;;;;;;;10.34;43.95;99854.28;6048703;28;20061;-71
2022/03/30 11:46:53;;;;;;;5.20;1.42;;;;;;;10.49;44.00;99846.50;6048862;28;20034;-71
2022/03/30 11:49:51;;;;;;;6.07;1.67;;;;;;;10.50;43.69;99841.03;6034752;28;20042;-70
2022/03/30 11:53:01;;;;;;;6.22;1.70;;;;;;;10.57;43.75;99847.28;6048777;28;20460;-68
2022/03/30 11:55:59;;;;;;;5.85;1.40;;;;;;;10.68;43.45;99843.50;6041773;28;20076;-71
2022/03/30 11:58:56;;;;;;;6.00;1.55;;;;;;;10.19;43.81;99840.03;6049622;28;20461;-72
2022/03/30 12:01:53;;;;;;;5.55;1.70;;;;;;;10.57;43.77;99836.69;6048171;28;20073;-71
2022/03/30 12:04:48;;;;;;;7.07;2.28;;;;;;;10.72;43.00;99829.72;6049418;28;20034;-71
2022/03/30 12:07:44;;;;;;;8.65;1.98;;;;;;;11.05;42.35;99816.38;6051581;28;20083;-70
2022/03/30 12:10:40;;;;;;;5.80;2.30;;;;;;;11.23;42.91;99816.97;6052110;28;20065;-71
2022/03/30 12:13:35;;;;;;;5.17;2.07;;;;;;;10.71;43.41;99820.09;6053514;28;20038;-69
2022/03/30 12:16:34;;;;;;;8.25;2.00;;;;;;;10.95;43.22;99813.09;6053139;28;20053;-71
2022/03/30 12:19:29;;;;;;;10.50;2.30;;;;;;;11.42;42.40;99813.06;6053798;28;20041;-72
2022/03/30 12:22:25;;;;;;;8.07;2.25;;;;;;;11.37;41.37;99797.66;6052752;28;20034;-71
2022/03/30 12:25:20;;;;;;;7.73;1.97;;;;;;;11.94;41.56;99798.16;6053373;28;20034;-70
2022/03/30 12:28:30;;;;;;;5.00;1.60;;;;;;;12.28;40.93;99795.94;6053153;28;20777;-70
2022/03/30 12:31:25;;;;;;;5.55;1.88;;;;;;;12.32;40.43;99791.06;6054995;28;20589;-70
2022/03/30 12:34:23;;;;;;;7.20;2.08;;;;;;;11.37;41.72;99795.00;6053435;28;20022;-70
2022/03/30 12:37:24;;;;;;;8.15;2.10;;;;;;;11.37;42.92;99792.34;6052595;28;20038;-71
2022/03/30 12:40:20;;;;;;;9.52;2.30;;;;;;;11.37;42.92;99787.03;6052690;28;20053;-70
2022/03/30 12:43:22;;;;;;;10.60;2.22;;;;;;;11.33;42.82;99793.72;6053044;28;20195;-71
2022/03/30 12:46:19;;;;;;;10.32;2.47;;;;;;;11.19;43.28;99791.78;6051805;28;20041;-70
2022/03/30 12:49:15;;;;;;;8.98;2.00;;;;;;;11.35;43.95;99791.72;6052024;28;20397;-71
2022/03/30 12:52:13;;;;;;;5.75;1.80;;;;;;;11.85;43.01;99789.44;6051626;28;20038;-71
2022/03/30 12:55:12;;;;;;;5.45;1.85;;;;;;;11.22;43.41;99786.13;6052940;28;20037;-69
2022/03/30 12:58:13;;;;;;;5.65;1.77;;;;;;;11.23;43.64;99777.16;6052228;28;20033;-70
2022/03/30 13:01:09;;;;;;;8.82;2.13;;;;;;;11.47;43.70;99777.03;6052062;28;20036;-68
2022/03/30 13:04:22;;;;;;;6.90;2.20;;;;;;;11.11;44.02;99775.91;6052398;28;20037;-69
2022/03/30 13:07:21;;;;;;;5.43;1.90;;;;;;;10.30;44.96;99773.44;6051751;28;20045;-69
2022/03/30 13:10:19;;;;;;;10.40;2.50;;;;;;;10.62;45.04;99764.63;6051530;28;20412;-70
2022/03/30 13:13:16;;;;;;;7.95;2.78;;;;;;;10.89;44.96;99774.00;6052669;28;20113;-70
2022/03/30 13:16:14;;;;;;;11.10;2.22;;;;;;;11.57;44.71;99759.06;6051703;28;20037;-68
2022/03/30 13:19:11;;;;;;;7.80;1.98;;;;;;;11.76;44.01;99758.63;6051665;28;20488;-69
2022/03/30 13:22:08;;;;;;;9.13;2.45;;;;;;;11.03;43.91;99766.16;6051327;28;20481;-70
2022/03/30 13:25:03;;;;;;;8.88;2.28;;;;;;;10.48;45.23;99760.84;6052169;28;20382;-70
2022/03/30 13:28:01;;;;;;;8.25;2.20;;;;;;;11.14;44.38;99755.13;6051526;28;20065;-71
2022/03/30 13:30:57;;;;;;;8.55;2.10;;;;;;;11.13;43.62;99750.00;6051220;28;20037;-70
2022/03/30 13:33:57;;;;;;;6.03;2.70;;;;;;;11.23;44.05;99754.09;6054024;28;20389;-69
2022/03/30 13:36:53;;;;;;;12.98;2.58;;;;;;;11.26;43.52;99740.50;6050779;28;20029;-70
2022/03/30 13:39:49;;;;;;;6.40;2.20;;;;;;;11.42;43.74;99739.56;6051540;28;20048;-70
2022/03/30 13:42:45;;;;;;;12.77;3.17;;;;;;;11.39;44.10;99742.56;6050051;28;20041;-71
2022/03/30 13:45:40;;;;;;;8.75;2.33;;;;;;;11.99;43.30;99739.19;6051400;28;20387;-69
2022/03/30 13:48:36;;;;;;;8.30;2.53;;;;;;;11.78;43.16;99732.72;6050788;28;20061;-71
2022/03/30 13:51:31;;;;;;;6.68;1.90;;;;;;;11.42;46.03;99739.56;6051005;28;20133;-69
2022/03/30 13:54:27;;;;;;;6.27;2.33;;;;;;;10.74;47.47;99736.72;6051471;28;20037;-70
2022/03/30 13:57:22;;;;;;;6.80;2.07;;;;;;;10.79;48.59;99736.25;6049564;28;20276;-71
2022/03/30 14:00:19;;;;;;;3.75;1.70;;;;;;;10.51;49.25;99733.19;6050404;28;20038;-71
2022/03/30 14:03:14;;;;;;;6.15;1.60;;;;;;;9.97;50.91;99740.81;6051032;28;20037;-69
2022/03/30 14:06:10;;;;;;;8.40;1.73;;;;;;;9.97;51.57;99735.50;6051147;28;20088;-69
2022/03/30 14:09:05;;;;;;;9.82;2.40;;;;;;;9.89;51.65;99730.22;6050967;28;20030;-69